Погода Рябичевна неделю

Ростовская область, Россия

19 - 25 мая
  • 19мая
    Сегодня
    +12°
    +20°
    Небольшая облачность и лёгкий дождик
    ВремяПогодаТемператураВлажностьДавлениеВетер, м/сВероятность осадков
    00:00Пасмурно, сплошная облачность+14°C50 %759 мм2.5 м/с3 %
    03:00Практически безоблачно+13°C72 %759 мм2.2 м/с2 %
    06:00Практически безоблачно+12°C78 %759 мм1.9 м/с2 %
    09:00Облачно с прояснениями+15°C65 %759 мм1.4 м/с3 %
    12:00Практически безоблачно+19°C43 %759 мм1.9 м/с4 %
    15:00Небольшая облачность и лёгкий дождик+19°C51 %759 мм2.0 м/с19 %
    18:00Небольшая облачность+19°C45 %759 мм1.6 м/с42 %
    21:00Практически безоблачно+16°C79 %759 мм1.0 м/с7 %
  • 20мая
    Понедельник
    +14°
    +21°
    Ясно и безоблачно
    ВремяПогодаТемператураВлажностьДавлениеВетер, м/сВероятность осадков
    00:00Ясно и безоблачно+13°C81 %759 мм1.4 м/с2 %
    03:00Практически безоблачно+13°C84 %759 мм1.3 м/с2 %
    06:00Ясно и безоблачно+13°C90 %760 мм1.3 м/с2 %
    09:00Ясно и безоблачно+17°C57 %761 мм2.0 м/с2 %
    12:00Ясно и безоблачно+19°C42 %761 мм2.4 м/с5 %
    15:00Ясно и безоблачно+21°C37 %761 мм2.7 м/с2 %
    18:00Практически безоблачно+21°C40 %760 мм1.3 м/с1 %
    21:00Ясно и безоблачно+19°C58 %761 мм0.9 м/с2 %
  • 21мая
    Вторник
    +14°
    +24°
    Практически безоблачно
    ВремяПогодаТемператураВлажностьДавлениеВетер, м/сВероятность осадков
    00:00Ясно и безоблачно+15°C61 %761 мм1.5 м/с2 %
    03:00Практически безоблачно+14°C82 %762 мм1.7 м/с2 %
    06:00Ясно и безоблачно+15°C76 %762 мм1.5 м/с2 %
    09:00Ясно и безоблачно+20°C46 %763 мм2.1 м/с2 %
    12:00Небольшая облачность+22°C31 %763 мм2.7 м/с2 %
    15:00Практически безоблачно+24°C27 %762 мм2.5 м/с2 %
    18:00Ясно и безоблачно+23°C30 %762 мм1.9 м/с2 %
    21:00Ясно и безоблачно+20°C47 %762 мм1.7 м/с2 %
  • 22мая
    Среда
    +14°
    +25°
    Ясно и безоблачно
    ВремяПогодаТемператураВлажностьДавлениеВетер, м/сВероятность осадков
    00:00Ясно и безоблачно+17°C52 %762 мм2.0 м/с2 %
    03:00Ясно и безоблачно+16°C50 %762 мм2.2 м/с2 %
    06:00Ясно и безоблачно+16°C51 %762 мм1.8 м/с2 %
    09:00Ясно и безоблачно+20°C45 %762 мм2.0 м/с2 %
    12:00Ясно и безоблачно+23°C32 %761 мм3.0 м/с2 %
    15:00Ясно и безоблачно+25°C28 %760 мм3.1 м/с2 %
    18:00Ясно и безоблачно+25°C30 %759 мм1.9 м/с2 %
    21:00Ясно и безоблачно+21°C39 %760 мм1.6 м/с2 %
  • 23мая
    Четверг
    +13°
    +26°
    Ясно и безоблачно
    ВремяПогодаТемператураВлажностьДавлениеВетер, м/сВероятность осадков
    00:00Ясно и безоблачно+18°C46 %760 мм2.2 м/с2 %
    03:00Ясно и безоблачно+16°C58 %760 мм1.8 м/с2 %
    06:00Ясно и безоблачно+16°C63 %760 мм1.7 м/с2 %
    09:00Ясно и безоблачно+20°C40 %760 мм2.5 м/с2 %
    12:00Ясно и безоблачно+23°C30 %759 мм3.2 м/с2 %
    15:00Ясно и безоблачно+26°C28 %759 мм3.0 м/с2 %
    18:00Ясно и безоблачно+25°C29 %758 мм1.8 м/с2 %
    21:00Ясно и безоблачно+22°C48 %759 мм3.8 м/с2 %
Мы используем cookies
Соглашаюсь